sensor_id;sensor_type;location;lat;lon;timestamp;temperature;humidity
32217;DHT22;67098;51.140;4.088;2023-03-04T00:00:11;9.10;76.00
32217;DHT22;67098;51.140;4.088;2023-03-04T00:02:37;9.10;76.10
32217;DHT22;67098;51.140;4.088;2023-03-04T00:05:03;9.10;76.30
32217;DHT22;67098;51.140;4.088;2023-03-04T00:07:29;9.20;76.20
32217;DHT22;67098;51.140;4.088;2023-03-04T00:09:55;9.10;76.20
32217;DHT22;67098;51.140;4.088;2023-03-04T00:12:20;9.20;76.10
32217;DHT22;67098;51.140;4.088;2023-03-04T00:14:46;9.20;76.10
32217;DHT22;67098;51.140;4.088;2023-03-04T00:17:11;9.20;76.10
32217;DHT22;67098;51.140;4.088;2023-03-04T00:19:37;9.10;76.10
32217;DHT22;67098;51.140;4.088;2023-03-04T00:22:03;9.10;76.30
32217;DHT22;67098;51.140;4.088;2023-03-04T00:24:29;9.10;76.30
32217;DHT22;67098;51.140;4.088;2023-03-04T00:26:55;9.10;76.40
32217;DHT22;67098;51.140;4.088;2023-03-04T00:29:20;9.20;76.40
32217;DHT22;67098;51.140;4.088;2023-03-04T00:31:46;9.20;76.50
32217;DHT22;67098;51.140;4.088;2023-03-04T00:34:12;9.20;76.60
32217;DHT22;67098;51.140;4.088;2023-03-04T00:36:38;9.20;76.50
32217;DHT22;67098;51.140;4.088;2023-03-04T00:39:03;9.20;76.50
32217;DHT22;67098;51.140;4.088;2023-03-04T00:41:29;9.20;76.50
32217;DHT22;67098;51.140;4.088;2023-03-04T00:43:54;9.20;76.40
32217;DHT22;67098;51.140;4.088;2023-03-04T00:46:20;9.20;76.30
32217;DHT22;67098;51.140;4.088;2023-03-04T00:48:46;9.30;76.40
32217;DHT22;67098;51.140;4.088;2023-03-04T00:51:11;9.20;76.60
32217;DHT22;67098;51.140;4.088;2023-03-04T00:53:37;9.30;76.50
32217;DHT22;67098;51.140;4.088;2023-03-04T00:56:03;9.30;76.40
32217;DHT22;67098;51.140;4.088;2023-03-04T00:58:28;9.30;76.40
32217;DHT22;67098;51.140;4.088;2023-03-04T01:00:54;9.30;76.40
32217;DHT22;67098;51.140;4.088;2023-03-04T01:03:19;9.20;76.60
32217;DHT22;67098;51.140;4.088;2023-03-04T01:05:45;9.20;76.80
32217;DHT22;67098;51.140;4.088;2023-03-04T01:08:11;9.20;76.90
32217;DHT22;67098;51.140;4.088;2023-03-04T01:10:36;9.20;77.10
32217;DHT22;67098;51.140;4.088;2023-03-04T01:13:02;9.20;77.00
32217;DHT22;67098;51.140;4.088;2023-03-04T01:15:28;9.20;77.30
32217;DHT22;67098;51.140;4.088;2023-03-04T01:17:53;9.10;77.60
32217;DHT22;67098;51.140;4.088;2023-03-04T01:20:19;9.10;78.30
32217;DHT22;67098;51.140;4.088;2023-03-04T01:22:45;9.20;77.60
32217;DHT22;67098;51.140;4.088;2023-03-04T01:25:11;9.20;77.50
32217;DHT22;67098;51.140;4.088;2023-03-04T01:27:37;9.20;77.40
32217;DHT22;67098;51.140;4.088;2023-03-04T01:30:03;9.20;77.40
32217;DHT22;67098;51.140;4.088;2023-03-04T01:32:29;9.20;77.50
32217;DHT22;67098;51.140;4.088;2023-03-04T01:34:55;9.20;77.50
32217;DHT22;67098;51.140;4.088;2023-03-04T01:37:20;9.20;77.60
32217;DHT22;67098;51.140;4.088;2023-03-04T01:39:46;9.20;77.70
32217;DHT22;67098;51.140;4.088;2023-03-04T01:42:17;9.20;77.80
32217;DHT22;67098;51.140;4.088;2023-03-04T01:44:44;9.10;78.00
32217;DHT22;67098;51.140;4.088;2023-03-04T01:47:09;9.10;77.80
32217;DHT22;67098;51.140;4.088;2023-03-04T01:49:35;9.20;77.90
32217;DHT22;67098;51.140;4.088;2023-03-04T01:52:01;9.20;77.90
32217;DHT22;67098;51.140;4.088;2023-03-04T01:54:26;9.20;78.10
32217;DHT22;67098;51.140;4.088;2023-03-04T01:56:52;9.20;78.20
32217;DHT22;67098;51.140;4.088;2023-03-04T01:59:22;9.20;78.30
32217;DHT22;67098;51.140;4.088;2023-03-04T02:01:53;9.20;78.30
32217;DHT22;67098;51.140;4.088;2023-03-04T02:04:22;9.20;78.30
32217;DHT22;67098;51.140;4.088;2023-03-04T02:06:49;9.20;78.30
32217;DHT22;67098;51.140;4.088;2023-03-04T02:09:15;9.20;78.50
32217;DHT22;67098;51.140;4.088;2023-03-04T02:11:43;9.20;78.40
32217;DHT22;67098;51.140;4.088;2023-03-04T02:14:10;9.20;78.50
32217;DHT22;67098;51.140;4.088;2023-03-04T02:16:35;9.20;78.70
32217;DHT22;67098;51.140;4.088;2023-03-04T02:19:06;9.10;78.80
32217;DHT22;67098;51.140;4.088;2023-03-04T02:21:33;9.10;78.90
32217;DHT22;67098;51.140;4.088;2023-03-04T02:26:37;9.00;79.20
32217;DHT22;67098;51.140;4.088;2023-03-04T02:29:06;9.00;79.50
32217;DHT22;67098;51.140;4.088;2023-03-04T02:31:39;9.00;79.60
32217;DHT22;67098;51.140;4.088;2023-03-04T02:34:14;9.00;79.60
32217;DHT22;67098;51.140;4.088;2023-03-04T02:36:42;9.00;79.50
32217;DHT22;67098;51.140;4.088;2023-03-04T02:41:57;9.00;79.60
32217;DHT22;67098;51.140;4.088;2023-03-04T02:44:35;9.00;79.70
32217;DHT22;67098;51.140;4.088;2023-03-04T02:47:02;9.00;79.70
32217;DHT22;67098;51.140;4.088;2023-03-04T02:49:30;9.00;79.70
32217;DHT22;67098;51.140;4.088;2023-03-04T02:52:05;9.00;79.90
32217;DHT22;67098;51.140;4.088;2023-03-04T02:54:31;9.00;79.80
32217;DHT22;67098;51.140;4.088;2023-03-04T02:56:59;9.00;79.90
32217;DHT22;67098;51.140;4.088;2023-03-04T02:59:26;8.90;79.90
32217;DHT22;67098;51.140;4.088;2023-03-04T03:01:51;8.90;80.10
32217;DHT22;67098;51.140;4.088;2023-03-04T03:04:19;8.90;80.00
32217;DHT22;67098;51.140;4.088;2023-03-04T03:06:45;9.00;80.00
32217;DHT22;67098;51.140;4.088;2023-03-04T03:09:10;9.00;80.00
32217;DHT22;67098;51.140;4.088;2023-03-04T03:11:36;8.90;80.10
32217;DHT22;67098;51.140;4.088;2023-03-04T03:14:02;8.90;80.10
32217;DHT22;67098;51.140;4.088;2023-03-04T03:16:27;8.80;80.60
32217;DHT22;67098;51.140;4.088;2023-03-04T03:18:53;8.70;80.50
32217;DHT22;67098;51.140;4.088;2023-03-04T03:21:19;8.70;80.50
32217;DHT22;67098;51.140;4.088;2023-03-04T03:23:45;8.80;80.30
32217;DHT22;67098;51.140;4.088;2023-03-04T03:26:11;8.70;80.80
32217;DHT22;67098;51.140;4.088;2023-03-04T03:28:36;8.50;80.90
32217;DHT22;67098;51.140;4.088;2023-03-04T03:31:02;8.50;81.20
32217;DHT22;67098;51.140;4.088;2023-03-04T03:33:28;8.50;81.00
32217;DHT22;67098;51.140;4.088;2023-03-04T03:35:54;8.60;80.80
32217;DHT22;67098;51.140;4.088;2023-03-04T03:38:19;8.60;81.00
32217;DHT22;67098;51.140;4.088;2023-03-04T03:40:45;8.60;81.10
32217;DHT22;67098;51.140;4.088;2023-03-04T03:43:11;8.60;80.90
32217;DHT22;67098;51.140;4.088;2023-03-04T03:45:36;8.80;80.60
32217;DHT22;67098;51.140;4.088;2023-03-04T03:48:03;8.80;80.50
32217;DHT22;67098;51.140;4.088;2023-03-04T03:50:29;8.90;80.50
32217;DHT22;67098;51.140;4.088;2023-03-04T03:52:55;8.90;80.80
32217;DHT22;67098;51.140;4.088;2023-03-04T03:55:21;8.80;80.80
32217;DHT22;67098;51.140;4.088;2023-03-04T03:57:46;8.90;80.40
32217;DHT22;67098;51.140;4.088;2023-03-04T04:00:13;8.90;80.10
32217;DHT22;67098;51.140;4.088;2023-03-04T04:02:39;8.80;80.30
32217;DHT22;67098;51.140;4.088;2023-03-04T04:05:05;8.80;80.00
32217;DHT22;67098;51.140;4.088;2023-03-04T04:07:31;8.90;80.00
32217;DHT22;67098;51.140;4.088;2023-03-04T04:09:57;8.90;79.80
32217;DHT22;67098;51.140;4.088;2023-03-04T04:12:23;8.90;79.80
32217;DHT22;67098;51.140;4.088;2023-03-04T04:14:48;8.90;79.80
32217;DHT22;67098;51.140;4.088;2023-03-04T04:17:14;8.80;80.00
32217;DHT22;67098;51.140;4.088;2023-03-04T04:19:40;8.80;80.10
32217;DHT22;67098;51.140;4.088;2023-03-04T04:22:07;8.90;80.00
32217;DHT22;67098;51.140;4.088;2023-03-04T04:24:36;8.90;80.00
32217;DHT22;67098;51.140;4.088;2023-03-04T04:27:02;8.90;80.00
32217;DHT22;67098;51.140;4.088;2023-03-04T04:29:28;8.90;80.00
32217;DHT22;67098;51.140;4.088;2023-03-04T04:31:54;8.90;80.10
32217;DHT22;67098;51.140;4.088;2023-03-04T04:34:20;8.90;80.10
32217;DHT22;67098;51.140;4.088;2023-03-04T04:36:46;8.90;80.10
32217;DHT22;67098;51.140;4.088;2023-03-04T04:39:11;8.80;80.40
32217;DHT22;67098;51.140;4.088;2023-03-04T04:41:40;8.80;80.30
32217;DHT22;67098;51.140;4.088;2023-03-04T04:44:06;8.80;80.10
32217;DHT22;67098;51.140;4.088;2023-03-04T04:46:32;8.90;79.90
32217;DHT22;67098;51.140;4.088;2023-03-04T04:48:58;8.80;79.90
32217;DHT22;67098;51.140;4.088;2023-03-04T04:51:24;8.80;80.30
32217;DHT22;67098;51.140;4.088;2023-03-04T04:53:50;8.80;80.20
32217;DHT22;67098;51.140;4.088;2023-03-04T04:56:18;8.90;80.00
32217;DHT22;67098;51.140;4.088;2023-03-04T04:58:45;8.90;79.90
32217;DHT22;67098;51.140;4.088;2023-03-04T05:01:11;8.90;79.90
32217;DHT22;67098;51.140;4.088;2023-03-04T05:03:38;8.90;80.10
32217;DHT22;67098;51.140;4.088;2023-03-04T05:06:06;9.00;80.10
32217;DHT22;67098;51.140;4.088;2023-03-04T05:08:32;9.00;80.20
32217;DHT22;67098;51.140;4.088;2023-03-04T05:10:58;9.00;80.60
32217;DHT22;67098;51.140;4.088;2023-03-04T05:13:24;9.00;80.30
32217;DHT22;67098;51.140;4.088;2023-03-04T05:15:51;8.90;80.70
32217;DHT22;67098;51.140;4.088;2023-03-04T05:18:18;9.00;80.70
32217;DHT22;67098;51.140;4.088;2023-03-04T05:20:48;9.00;80.80
32217;DHT22;67098;51.140;4.088;2023-03-04T05:23:14;9.00;81.00
32217;DHT22;67098;51.140;4.088;2023-03-04T05:25:39;8.90;81.50
32217;DHT22;67098;51.140;4.088;2023-03-04T05:28:05;8.90;80.90
32217;DHT22;67098;51.140;4.088;2023-03-04T05:30:34;8.90;80.60
32217;DHT22;67098;51.140;4.088;2023-03-04T05:33:00;8.90;80.70
32217;DHT22;67098;51.140;4.088;2023-03-04T05:35:25;8.90;80.70
32217;DHT22;67098;51.140;4.088;2023-03-04T05:37:51;8.90;80.50
32217;DHT22;67098;51.140;4.088;2023-03-04T05:40:16;8.90;80.60
32217;DHT22;67098;51.140;4.088;2023-03-04T05:42:42;8.90;80.60
32217;DHT22;67098;51.140;4.088;2023-03-04T05:45:08;8.90;80.70
32217;DHT22;67098;51.140;4.088;2023-03-04T05:47:34;8.90;80.60
32217;DHT22;67098;51.140;4.088;2023-03-04T05:49:59;8.90;80.90
32217;DHT22;67098;51.140;4.088;2023-03-04T05:52:25;8.90;81.40
32217;DHT22;67098;51.140;4.088;2023-03-04T05:54:51;8.80;81.00
32217;DHT22;67098;51.140;4.088;2023-03-04T05:57:16;8.80;81.40
32217;DHT22;67098;51.140;4.088;2023-03-04T05:59:42;8.80;81.10
32217;DHT22;67098;51.140;4.088;2023-03-04T06:02:07;8.90;81.00
32217;DHT22;67098;51.140;4.088;2023-03-04T06:04:33;8.90;80.60
32217;DHT22;67098;51.140;4.088;2023-03-04T06:06:59;8.90;80.60
32217;DHT22;67098;51.140;4.088;2023-03-04T06:09:24;8.90;80.70
32217;DHT22;67098;51.140;4.088;2023-03-04T06:11:50;9.00;80.60
32217;DHT22;67098;51.140;4.088;2023-03-04T06:14:16;9.00;80.70
32217;DHT22;67098;51.140;4.088;2023-03-04T06:16:41;8.90;80.70
32217;DHT22;67098;51.140;4.088;2023-03-04T06:19:07;8.90;80.90
32217;DHT22;67098;51.140;4.088;2023-03-04T06:21:32;8.90;80.50
32217;DHT22;67098;51.140;4.088;2023-03-04T06:23:58;8.90;80.20
32217;DHT22;67098;51.140;4.088;2023-03-04T06:26:23;8.90;80.10
32217;DHT22;67098;51.140;4.088;2023-03-04T06:28:49;8.90;80.20
32217;DHT22;67098;51.140;4.088;2023-03-04T06:31:15;8.90;80.20
32217;DHT22;67098;51.140;4.088;2023-03-04T06:33:40;8.90;80.40
32217;DHT22;67098;51.140;4.088;2023-03-04T06:36:06;8.90;80.30
32217;DHT22;67098;51.140;4.088;2023-03-04T06:38:32;8.90;80.50
32217;DHT22;67098;51.140;4.088;2023-03-04T06:41:08;8.90;80.60
32217;DHT22;67098;51.140;4.088;2023-03-04T06:43:34;8.90;80.70
32217;DHT22;67098;51.140;4.088;2023-03-04T06:46:00;8.90;80.70
32217;DHT22;67098;51.140;4.088;2023-03-04T06:48:26;8.90;80.70
32217;DHT22;67098;51.140;4.088;2023-03-04T06:50:52;8.90;81.10
32217;DHT22;67098;51.140;4.088;2023-03-04T06:53:17;9.00;80.80
32217;DHT22;67098;51.140;4.088;2023-03-04T06:55:43;8.90;80.70
32217;DHT22;67098;51.140;4.088;2023-03-04T06:58:09;9.00;80.80
32217;DHT22;67098;51.140;4.088;2023-03-04T07:00:34;9.00;80.90
32217;DHT22;67098;51.140;4.088;2023-03-04T07:03:00;9.00;81.00
32217;DHT22;67098;51.140;4.088;2023-03-04T07:05:26;9.00;81.10
32217;DHT22;67098;51.140;4.088;2023-03-04T07:07:52;9.00;81.00
32217;DHT22;67098;51.140;4.088;2023-03-04T07:10:18;9.00;81.00
32217;DHT22;67098;51.140;4.088;2023-03-04T07:12:44;9.00;81.10
32217;DHT22;67098;51.140;4.088;2023-03-04T07:15:10;9.00;81.20
32217;DHT22;67098;51.140;4.088;2023-03-04T07:17:36;9.00;81.10
32217;DHT22;67098;51.140;4.088;2023-03-04T07:20:02;9.00;81.40
32217;DHT22;67098;51.140;4.088;2023-03-04T07:22:28;9.00;81.40
32217;DHT22;67098;51.140;4.088;2023-03-04T07:24:53;8.90;81.90
32217;DHT22;67098;51.140;4.088;2023-03-04T07:27:19;9.00;82.00
32217;DHT22;67098;51.140;4.088;2023-03-04T07:29:45;9.00;81.80
32217;DHT22;67098;51.140;4.088;2023-03-04T07:32:11;9.10;81.60
32217;DHT22;67098;51.140;4.088;2023-03-04T07:34:37;9.20;81.60
32217;DHT22;67098;51.140;4.088;2023-03-04T07:37:03;9.10;81.70
32217;DHT22;67098;51.140;4.088;2023-03-04T07:39:28;9.10;82.00
32217;DHT22;67098;51.140;4.088;2023-03-04T07:41:54;9.20;81.80
32217;DHT22;67098;51.140;4.088;2023-03-04T07:44:19;9.20;81.80
32217;DHT22;67098;51.140;4.088;2023-03-04T07:46:46;9.30;81.60
32217;DHT22;67098;51.140;4.088;2023-03-04T07:49:12;9.30;81.50
32217;DHT22;67098;51.140;4.088;2023-03-04T07:51:38;9.20;81.70
32217;DHT22;67098;51.140;4.088;2023-03-04T07:54:04;9.30;81.60
32217;DHT22;67098;51.140;4.088;2023-03-04T07:56:32;9.40;81.50
32217;DHT22;67098;51.140;4.088;2023-03-04T07:58:59;9.40;81.20
32217;DHT22;67098;51.140;4.088;2023-03-04T08:01:31;9.50;81.30
32217;DHT22;67098;51.140;4.088;2023-03-04T08:03:58;9.40;81.80
32217;DHT22;67098;51.140;4.088;2023-03-04T08:06:24;9.50;81.50
32217;DHT22;67098;51.140;4.088;2023-03-04T08:08:56;9.50;81.70
32217;DHT22;67098;51.140;4.088;2023-03-04T08:11:22;9.50;82.00
32217;DHT22;67098;51.140;4.088;2023-03-04T08:13:49;9.50;82.00
32217;DHT22;67098;51.140;4.088;2023-03-04T08:16:16;9.30;83.30
32217;DHT22;67098;51.140;4.088;2023-03-04T08:18:44;9.40;83.30
32217;DHT22;67098;51.140;4.088;2023-03-04T08:21:11;9.20;84.30
32217;DHT22;67098;51.140;4.088;2023-03-04T08:23:37;9.30;84.10
32217;DHT22;67098;51.140;4.088;2023-03-04T08:26:14;9.20;84.40
32217;DHT22;67098;51.140;4.088;2023-03-04T08:28:40;9.20;84.80
32217;DHT22;67098;51.140;4.088;2023-03-04T08:31:05;9.30;84.50
32217;DHT22;67098;51.140;4.088;2023-03-04T08:33:32;9.50;84.60
32217;DHT22;67098;51.140;4.088;2023-03-04T08:35:58;9.50;84.60
32217;DHT22;67098;51.140;4.088;2023-03-04T08:38:25;9.50;84.40
32217;DHT22;67098;51.140;4.088;2023-03-04T08:40:54;9.60;84.10
32217;DHT22;67098;51.140;4.088;2023-03-04T08:43:21;9.70;83.90
32217;DHT22;67098;51.140;4.088;2023-03-04T08:45:48;9.80;84.00
32217;DHT22;67098;51.140;4.088;2023-03-04T08:48:14;9.70;83.90
32217;DHT22;67098;51.140;4.088;2023-03-04T08:50:40;9.70;84.00
32217;DHT22;67098;51.140;4.088;2023-03-04T08:53:07;9.80;84.20
32217;DHT22;67098;51.140;4.088;2023-03-04T08:55:33;9.80;84.40
32217;DHT22;67098;51.140;4.088;2023-03-04T08:57:58;9.60;85.90
32217;DHT22;67098;51.140;4.088;2023-03-04T09:00:24;9.50;87.10
32217;DHT22;67098;51.140;4.088;2023-03-04T09:02:50;9.40;86.50
32217;DHT22;67098;51.140;4.088;2023-03-04T09:05:15;9.50;85.70
32217;DHT22;67098;51.140;4.088;2023-03-04T09:07:41;9.50;86.20
32217;DHT22;67098;51.140;4.088;2023-03-04T09:10:07;9.60;86.50
32217;DHT22;67098;51.140;4.088;2023-03-04T09:12:33;9.80;85.40
32217;DHT22;67098;51.140;4.088;2023-03-04T09:14:59;9.90;84.70
32217;DHT22;67098;51.140;4.088;2023-03-04T09:17:24;10.10;84.20
32217;DHT22;67098;51.140;4.088;2023-03-04T09:19:50;10.20;84.00
32217;DHT22;67098;51.140;4.088;2023-03-04T09:22:16;10.40;83.20
32217;DHT22;67098;51.140;4.088;2023-03-04T09:24:41;10.50;82.60
32217;DHT22;67098;51.140;4.088;2023-03-04T09:27:08;10.60;82.00
32217;DHT22;67098;51.140;4.088;2023-03-04T09:29:34;10.60;81.60
32217;DHT22;67098;51.140;4.088;2023-03-04T09:31:59;10.60;81.80
32217;DHT22;67098;51.140;4.088;2023-03-04T09:34:25;10.60;81.70
32217;DHT22;67098;51.140;4.088;2023-03-04T09:36:50;10.60;81.80
32217;DHT22;67098;51.140;4.088;2023-03-04T09:39:16;10.60;81.80
32217;DHT22;67098;51.140;4.088;2023-03-04T09:41:49;10.60;81.60
32217;DHT22;67098;51.140;4.088;2023-03-04T09:44:43;10.70;81.10
32217;DHT22;67098;51.140;4.088;2023-03-04T09:47:15;10.70;81.20
32217;DHT22;67098;51.140;4.088;2023-03-04T09:49:44;10.70;81.30
32217;DHT22;67098;51.140;4.088;2023-03-04T10:00:45;10.90;80.60
32217;DHT22;67098;51.140;4.088;2023-03-04T10:03:18;10.80;80.60
32217;DHT22;67098;51.140;4.088;2023-03-04T10:05:49;10.80;80.90
32217;DHT22;67098;51.140;4.088;2023-03-04T10:11:04;10.90;80.70
32217;DHT22;67098;51.140;4.088;2023-03-04T10:25:30;11.60;79.70
32217;DHT22;67098;51.140;4.088;2023-03-04T10:28:08;11.70;79.30
32217;DHT22;67098;51.140;4.088;2023-03-04T10:33:28;12.10;78.20
32217;DHT22;67098;51.140;4.088;2023-03-04T10:38:39;12.30;77.90
32217;DHT22;67098;51.140;4.088;2023-03-04T10:41:19;12.20;77.40
32217;DHT22;67098;51.140;4.088;2023-03-04T10:43:50;12.10;77.40
32217;DHT22;67098;51.140;4.088;2023-03-04T10:46:25;12.00;77.90
32217;DHT22;67098;51.140;4.088;2023-03-04T10:48:52;12.20;78.00
32217;DHT22;67098;51.140;4.088;2023-03-04T10:51:20;12.50;77.00
32217;DHT22;67098;51.140;4.088;2023-03-04T10:53:49;12.90;75.90
32217;DHT22;67098;51.140;4.088;2023-03-04T10:56:34;13.30;73.80
32217;DHT22;67098;51.140;4.088;2023-03-04T11:01:58;13.70;73.30
32217;DHT22;67098;51.140;4.088;2023-03-04T11:04:26;13.80;72.70
32217;DHT22;67098;51.140;4.088;2023-03-04T11:06:53;13.90;72.90
32217;DHT22;67098;51.140;4.088;2023-03-04T11:09:27;13.70;72.80
32217;DHT22;67098;51.140;4.088;2023-03-04T11:11:55;13.60;72.80
32217;DHT22;67098;51.140;4.088;2023-03-04T11:14:36;13.60;72.80
32217;DHT22;67098;51.140;4.088;2023-03-04T11:19:41;13.30;72.70
32217;DHT22;67098;51.140;4.088;2023-03-04T11:22:14;13.20;73.20
32217;DHT22;67098;51.140;4.088;2023-03-04T11:24:42;13.20;73.90
32217;DHT22;67098;51.140;4.088;2023-03-04T11:27:20;13.10;73.60
32217;DHT22;67098;51.140;4.088;2023-03-04T11:29:52;13.10;74.20
32217;DHT22;67098;51.140;4.088;2023-03-04T11:32:26;13.50;73.70
32217;DHT22;67098;51.140;4.088;2023-03-04T11:40:14;14.80;70.60
32217;DHT22;67098;51.140;4.088;2023-03-04T11:45:18;14.90;69.50
32217;DHT22;67098;51.140;4.088;2023-03-04T11:47:55;14.90;68.70
32217;DHT22;67098;51.140;4.088;2023-03-04T11:56:06;14.60;68.70
32217;DHT22;67098;51.140;4.088;2023-03-04T11:58:59;14.20;69.50
32217;DHT22;67098;51.140;4.088;2023-03-04T12:01:43;13.90;70.20
32217;DHT22;67098;51.140;4.088;2023-03-04T12:15:43;12.70;75.00
32217;DHT22;67098;51.140;4.088;2023-03-04T12:18:26;12.50;76.00
32217;DHT22;67098;51.140;4.088;2023-03-04T12:21:18;12.30;76.80
32217;DHT22;67098;51.140;4.088;2023-03-04T12:29:01;12.00;79.90
32217;DHT22;67098;51.140;4.088;2023-03-04T12:31:51;12.00;81.50
32217;DHT22;67098;51.140;4.088;2023-03-04T12:40:07;12.90;82.20
32217;DHT22;67098;51.140;4.088;2023-03-04T12:45:26;14.50;78.80
32217;DHT22;67098;51.140;4.088;2023-03-04T12:48:01;15.10;75.60
32217;DHT22;67098;51.140;4.088;2023-03-04T12:55:53;16.10;71.60
32217;DHT22;67098;51.140;4.088;2023-03-04T12:58:29;17.00;69.00
32217;DHT22;67098;51.140;4.088;2023-03-04T13:16:38;17.80;64.70
32217;DHT22;67098;51.140;4.088;2023-03-04T13:24:56;16.00;65.70
32217;DHT22;67098;51.140;4.088;2023-03-04T13:27:44;15.60;66.80
32217;DHT22;67098;51.140;4.088;2023-03-04T13:41:31;13.90;72.60
32217;DHT22;67098;51.140;4.088;2023-03-04T13:47:19;13.40;72.80
32217;DHT22;67098;51.140;4.088;2023-03-04T13:49:45;13.50;73.00
32217;DHT22;67098;51.140;4.088;2023-03-04T13:56:18;13.20;74.50
32217;DHT22;67098;51.140;4.088;2023-03-04T13:58:24;13.20;74.60
32217;DHT22;67098;51.140;4.088;2023-03-04T14:00:52;13.10;74.90
32217;DHT22;67098;51.140;4.088;2023-03-04T14:03:21;13.10;74.80
32217;DHT22;67098;51.140;4.088;2023-03-04T14:06:07;13.10;74.60
32217;DHT22;67098;51.140;4.088;2023-03-04T14:08:33;13.00;75.10
32217;DHT22;67098;51.140;4.088;2023-03-04T14:10:58;13.10;75.10
32217;DHT22;67098;51.140;4.088;2023-03-04T14:13:24;13.10;75.40
32217;DHT22;67098;51.140;4.088;2023-03-04T14:15:57;13.20;74.90
32217;DHT22;67098;51.140;4.088;2023-03-04T14:18:24;13.50;74.60
32217;DHT22;67098;51.140;4.088;2023-03-04T14:20:50;13.60;74.30
32217;DHT22;67098;51.140;4.088;2023-03-04T14:23:24;13.80;74.30
32217;DHT22;67098;51.140;4.088;2023-03-04T14:25:50;14.00;73.00
32217;DHT22;67098;51.140;4.088;2023-03-04T14:28:19;14.20;72.20
32217;DHT22;67098;51.140;4.088;2023-03-04T14:30:55;14.20;71.60
32217;DHT22;67098;51.140;4.088;2023-03-04T14:33:24;14.10;71.80
32217;DHT22;67098;51.140;4.088;2023-03-04T14:35:55;13.80;72.50
32217;DHT22;67098;51.140;4.088;2023-03-04T14:38:34;13.70;73.00
32217;DHT22;67098;51.140;4.088;2023-03-04T14:43:35;13.60;74.10
32217;DHT22;67098;51.140;4.088;2023-03-04T14:46:05;13.40;74.60
32217;DHT22;67098;51.140;4.088;2023-03-04T14:48:33;13.10;75.40
32217;DHT22;67098;51.140;4.088;2023-03-04T14:51:00;12.60;77.00
32217;DHT22;67098;51.140;4.088;2023-03-04T14:53:28;12.60;78.50
32217;DHT22;67098;51.140;4.088;2023-03-04T14:56:14;12.70;76.90
32217;DHT22;67098;51.140;4.088;2023-03-04T14:59:00;12.80;76.80
32217;DHT22;67098;51.140;4.088;2023-03-04T15:01:31;12.90;77.10
32217;DHT22;67098;51.140;4.088;2023-03-04T15:04:04;13.10;76.40
32217;DHT22;67098;51.140;4.088;2023-03-04T15:06:33;13.20;76.70
32217;DHT22;67098;51.140;4.088;2023-03-04T15:09:05;13.30;76.00
32217;DHT22;67098;51.140;4.088;2023-03-04T15:11:51;13.40;76.20
32217;DHT22;67098;51.140;4.088;2023-03-04T15:22:54;13.90;73.90
32217;DHT22;67098;51.140;4.088;2023-03-04T15:25:21;14.00;74.20
32217;DHT22;67098;51.140;4.088;2023-03-04T15:27:48;14.00;73.50
32217;DHT22;67098;51.140;4.088;2023-03-04T15:30:19;13.90;73.60
32217;DHT22;67098;51.140;4.088;2023-03-04T15:32:45;13.90;73.60
32217;DHT22;67098;51.140;4.088;2023-03-04T15:35:12;13.80;74.20
32217;DHT22;67098;51.140;4.088;2023-03-04T15:37:39;13.80;74.30
32217;DHT22;67098;51.140;4.088;2023-03-04T15:40:14;13.60;74.70
32217;DHT22;67098;51.140;4.088;2023-03-04T15:42:40;13.60;75.10
32217;DHT22;67098;51.140;4.088;2023-03-04T15:45:22;13.50;75.40
32217;DHT22;67098;51.140;4.088;2023-03-04T15:47:48;13.60;75.00
32217;DHT22;67098;51.140;4.088;2023-03-04T15:50:14;13.60;75.00
32217;DHT22;67098;51.140;4.088;2023-03-04T15:52:40;13.50;75.10
32217;DHT22;67098;51.140;4.088;2023-03-04T15:55:08;13.50;75.10
32217;DHT22;67098;51.140;4.088;2023-03-04T15:57:34;13.50;75.50
32217;DHT22;67098;51.140;4.088;2023-03-04T16:00:00;13.40;75.80
32217;DHT22;67098;51.140;4.088;2023-03-04T16:02:26;13.20;76.30
32217;DHT22;67098;51.140;4.088;2023-03-04T16:04:52;13.00;77.00
32217;DHT22;67098;51.140;4.088;2023-03-04T16:07:22;13.00;77.00
32217;DHT22;67098;51.140;4.088;2023-03-04T16:09:54;12.90;77.70
32217;DHT22;67098;51.140;4.088;2023-03-04T16:12:21;13.00;78.00
32217;DHT22;67098;51.140;4.088;2023-03-04T16:14:48;12.80;78.50
32217;DHT22;67098;51.140;4.088;2023-03-04T16:17:14;12.70;78.90
32217;DHT22;67098;51.140;4.088;2023-03-04T16:19:43;12.70;78.90
32217;DHT22;67098;51.140;4.088;2023-03-04T16:22:18;12.90;78.50
32217;DHT22;67098;51.140;4.088;2023-03-04T16:24:46;13.00;78.00
32217;DHT22;67098;51.140;4.088;2023-03-04T16:27:13;12.60;79.50
32217;DHT22;67098;51.140;4.088;2023-03-04T16:29:40;12.30;81.20
32217;DHT22;67098;51.140;4.088;2023-03-04T16:32:06;12.50;80.80
32217;DHT22;67098;51.140;4.088;2023-03-04T16:34:32;12.70;80.00
32217;DHT22;67098;51.140;4.088;2023-03-04T16:37:02;12.90;79.60
32217;DHT22;67098;51.140;4.088;2023-03-04T16:39:29;13.10;79.20
32217;DHT22;67098;51.140;4.088;2023-03-04T16:41:56;13.20;77.90
32217;DHT22;67098;51.140;4.088;2023-03-04T16:44:21;13.40;77.60
32217;DHT22;67098;51.140;4.088;2023-03-04T16:46:47;13.30;78.00
32217;DHT22;67098;51.140;4.088;2023-03-04T16:49:13;13.20;78.60
32217;DHT22;67098;51.140;4.088;2023-03-04T16:51:47;13.10;78.50
32217;DHT22;67098;51.140;4.088;2023-03-04T16:54:27;13.10;78.90
32217;DHT22;67098;51.140;4.088;2023-03-04T16:56:55;13.00;79.10
32217;DHT22;67098;51.140;4.088;2023-03-04T16:59:20;12.90;78.40
32217;DHT22;67098;51.140;4.088;2023-03-04T17:01:46;13.00;78.00
32217;DHT22;67098;51.140;4.088;2023-03-04T17:04:12;13.00;78.30
32217;DHT22;67098;51.140;4.088;2023-03-04T17:06:38;13.00;77.80
32217;DHT22;67098;51.140;4.088;2023-03-04T17:09:08;12.80;77.50
32217;DHT22;67098;51.140;4.088;2023-03-04T17:11:34;12.50;78.20
32217;DHT22;67098;51.140;4.088;2023-03-04T17:14:00;12.40;78.50
32217;DHT22;67098;51.140;4.088;2023-03-04T17:16:26;12.40;77.90
32217;DHT22;67098;51.140;4.088;2023-03-04T17:18:52;12.30;77.90
32217;DHT22;67098;51.140;4.088;2023-03-04T17:21:24;12.20;77.80
32217;DHT22;67098;51.140;4.088;2023-03-04T17:23:50;12.10;77.70
32217;DHT22;67098;51.140;4.088;2023-03-04T17:26:16;12.00;78.00
32217;DHT22;67098;51.140;4.088;2023-03-04T17:28:45;12.10;77.30
32217;DHT22;67098;51.140;4.088;2023-03-04T17:31:13;12.10;76.60
32217;DHT22;67098;51.140;4.088;2023-03-04T17:33:40;12.10;76.80
32217;DHT22;67098;51.140;4.088;2023-03-04T17:36:06;12.20;75.20
32217;DHT22;67098;51.140;4.088;2023-03-04T17:38:32;12.20;74.00
32217;DHT22;67098;51.140;4.088;2023-03-04T17:41:05;12.20;74.10
32217;DHT22;67098;51.140;4.088;2023-03-04T17:43:31;12.10;74.00
32217;DHT22;67098;51.140;4.088;2023-03-04T17:46:05;12.00;74.30
32217;DHT22;67098;51.140;4.088;2023-03-04T17:48:31;11.80;75.20
32217;DHT22;67098;51.140;4.088;2023-03-04T17:50:57;11.30;80.00
32217;DHT22;67098;51.140;4.088;2023-03-04T17:53:23;11.20;80.10
32217;DHT22;67098;51.140;4.088;2023-03-04T17:56:08;11.20;78.90
32217;DHT22;67098;51.140;4.088;2023-03-04T17:58:36;11.10;79.30